Time;durP1;ratioP1;P1;durP2;ratioP2;P2;SDS_P1;SDS_P2;PMS_P1;PMS_P2;Temp;Humidity;BMP_temperature;BMP_pressure;BME280_temperature;BME280_humidity;BME280_pressure;Samples;Min_cycle;Max_cycle;Signal;HPM_P1;HPM_P2
2022/10/22 05:11:22;;;;;;;;;0.67;0.67;;;;;20.07;61.25;100948.81;5122165;27;45829;-83
2022/10/22 05:13:48;;;;;;;;;0.00;0.00;;;;;20.20;61.02;100945.81;5092987;27;45476;-82
2022/10/22 05:16:13;;;;;;;;;1.00;1.00;;;;;20.39;60.49;100948.53;5084632;27;45400;-74
2022/10/22 05:18:42;;;;;;;;;1.00;1.00;;;;;20.66;60.78;100956.88;5081333;27;45485;-76
2022/10/22 05:21:10;;;;;;;;;0.00;0.00;;;;;20.93;60.55;100958.84;5074651;27;46470;-77
2022/10/22 05:23:35;;;;;;;;;1.00;1.00;;;;;21.22;60.01;100957.06;5087213;27;45352;-76
2022/10/22 05:26:05;;;;;;;;;1.00;0.00;;;;;21.50;59.40;100957.06;5081881;27;45768;-76
2022/10/22 05:28:32;;;;;;;;;0.33;0.33;;;;;21.77;58.86;100954.53;5073465;27;45785;-77
2022/10/22 05:30:59;;;;;;;;;0.67;0.67;;;;;22.03;58.56;100962.75;5077519;27;46380;-77
2022/10/22 05:33:26;;;;;;;;;0.00;0.00;;;;;22.28;58.26;100954.03;5087935;27;45496;-75
2022/10/22 05:35:52;;;;;;;;;0.33;0.33;;;;;22.50;57.93;100956.28;5090079;27;45510;-77
2022/10/22 05:38:17;;;;;;;;;0.00;0.00;;;;;22.71;57.52;100959.66;5091383;27;45339;-77
2022/10/22 05:40:44;;;;;;;;;0.00;0.00;;;;;22.87;57.10;100959.78;5091361;27;45375;-76
2022/10/22 05:43:10;;;;;;;;;0.00;0.00;;;;;23.08;56.99;100955.84;5091105;27;45559;-76
2022/10/22 05:45:39;;;;;;;;;0.33;0.33;;;;;23.26;56.46;100963.88;5090274;27;45414;-76
2022/10/22 05:48:06;;;;;;;;;1.00;1.00;;;;;23.41;56.30;100966.88;5090827;27;45811;-76
2022/10/22 05:50:33;;;;;;;;;0.00;0.00;;;;;23.54;55.91;100961.00;5096362;27;47127;-76
2022/10/22 05:52:59;;;;;;;;;0.33;0.33;;;;;23.67;55.61;100960.53;5088293;27;45445;-77
2022/10/22 05:55:24;;;;;;;;;0.67;0.67;;;;;23.79;55.29;100965.66;5086737;27;47487;-77
2022/10/22 05:57:49;;;;;;;;;2.00;0.67;;;;;23.89;54.90;100963.66;5087956;27;54017;-77
2022/10/22 06:00:15;;;;;;;;;1.00;1.00;;;;;23.99;54.75;100958.06;5090397;27;46014;-78
2022/10/22 06:02:41;;;;;;;;;1.67;0.33;;;;;24.07;54.45;100954.50;5091372;27;45446;-81
2022/10/22 06:05:07;;;;;;;;;0.33;0.33;;;;;24.18;54.61;100965.09;5087577;27;45535;-79
2022/10/22 06:07:32;;;;;;;;;0.33;0.33;;;;;24.27;54.36;100968.66;5090848;27;45422;-79
2022/10/22 06:09:58;;;;;;;;;0.00;0.00;;;;;24.38;54.00;100966.63;5090882;27;46376;-79
2022/10/22 06:12:24;;;;;;;;;0.33;0.00;;;;;24.46;53.83;100974.75;5089890;27;45516;-79
2022/10/22 06:14:50;;;;;;;;;0.00;0.00;;;;;24.50;53.78;100973.41;5088365;27;45410;-79
2022/10/22 06:17:15;;;;;;;;;3.00;0.00;;;;;24.59;53.61;100979.69;5091285;27;45467;-80
2022/10/22 06:19:41;;;;;;;;;0.00;0.00;;;;;24.63;53.31;100980.19;5090523;27;48288;-77
2022/10/22 06:22:06;;;;;;;;;0.00;0.00;;;;;24.68;53.19;100983.25;5076810;27;45767;-78
2022/10/22 06:24:31;;;;;;;;;2.00;0.00;;;;;24.71;53.00;100983.75;5077927;28;45331;-78
2022/10/22 06:26:57;;;;;;;;;1.00;1.00;;;;;24.80;53.08;101000.03;5075711;28;45370;-78
2022/10/22 06:29:22;;;;;;;;;1.00;1.00;;;;;24.84;53.34;100993.25;5076337;27;45432;-80
2022/10/22 06:31:47;;;;;;;;;1.00;1.00;;;;;24.85;52.71;100995.81;5072497;28;45396;-80
2022/10/22 06:34:14;;;;;;;;;2.00;0.00;;;;;24.88;52.70;100997.31;5063153;27;47615;-80
2022/10/22 06:36:42;;;;;;;;;0.00;0.00;;;;;24.90;52.66;101000.72;5074353;28;45509;-80
2022/10/22 06:39:11;;;;;;;;;0.00;0.00;;;;;24.93;52.71;101004.97;5072227;28;45324;-80
2022/10/22 06:41:36;;;;;;;;;0.33;0.33;;;;;24.92;52.52;101001.41;5076566;28;45485;-80
2022/10/22 06:44:01;;;;;;;;;0.00;0.00;;;;;24.96;52.37;101015.47;5077531;28;45349;-79
2022/10/22 06:46:27;;;;;;;;;0.67;0.00;;;;;24.99;52.38;101017.84;5076548;27;45417;-79
2022/10/22 06:49:01;;;;;;;;;0.67;0.67;;;;;25.01;52.41;101021.22;5076221;27;45355;-79
2022/10/22 06:51:27;;;;;;;;;0.00;0.00;;;;;25.00;52.47;101028.56;5077337;27;45374;-81
2022/10/22 06:53:54;;;;;;;;;2.00;0.00;;;;;25.04;52.11;101037.19;5076413;28;45350;-78
2022/10/22 06:56:21;;;;;;;;;0.00;0.00;;;;;25.08;51.99;101033.13;5076054;28;45518;-79
2022/10/22 06:58:48;;;;;;;;;0.00;0.00;;;;;25.10;52.00;101041.94;5077335;28;45454;-78
2022/10/22 07:01:16;;;;;;;;;0.67;0.67;;;;;25.12;51.60;101048.06;5076428;27;45398;-80
2022/10/22 07:03:41;;;;;;;;;1.00;1.00;;;;;25.13;51.96;101051.59;5074645;28;45414;-79
2022/10/22 07:06:09;;;;;;;;;0.00;0.00;;;;;25.15;52.14;101055.00;5073244;28;45322;-78
2022/10/22 07:08:35;;;;;;;;;0.00;0.00;;;;;25.16;51.69;101056.69;5077020;28;45439;-80
2022/10/22 07:11:09;;;;;;;;;0.00;0.00;;;;;25.16;52.32;101056.69;5071206;28;45443;-78
2022/10/22 07:13:35;;;;;;;;;2.00;0.00;;;;;25.17;51.90;101065.69;5074491;28;45337;-79
2022/10/22 07:16:01;;;;;;;;;0.00;0.00;;;;;25.17;52.08;101068.41;5074431;28;45499;-78
2022/10/22 07:18:26;;;;;;;;;0.00;0.00;;;;;25.18;51.95;101070.94;5075426;27;45734;-78
2022/10/22 07:20:51;;;;;;;;;2.00;0.33;;;;;25.20;52.12;101063.47;5075755;27;45402;-78
2022/10/22 07:23:17;;;;;;;;;1.00;1.00;;;;;25.21;52.12;101062.44;5076522;27;45465;-77
2022/10/22 07:25:42;;;;;;;;;2.00;0.33;;;;;25.20;51.87;101057.19;5079380;27;45698;-76
2022/10/22 07:28:08;;;;;;;;;0.67;0.67;;;;;25.20;51.49;101054.47;5074378;28;46027;-75
2022/10/22 07:30:35;;;;;;;;;1.67;1.00;;;;;25.20;51.58;101068.06;5072282;27;45445;-77
2022/10/22 07:33:01;;;;;;;;;0.00;0.00;;;;;25.18;51.85;101054.63;5073001;28;45443;-76
2022/10/22 07:35:26;;;;;;;;;0.00;0.00;;;;;25.19;51.77;101061.78;5076161;27;45648;-77
2022/10/22 07:37:51;;;;;;;;;1.00;1.00;;;;;25.20;52.03;101059.91;5076431;27;45336;-80
2022/10/22 07:40:17;;;;;;;;;0.00;0.00;;;;;25.15;51.55;101055.00;5075907;28;45390;-77
2022/10/22 07:42:42;;;;;;;;;1.00;1.00;;;;;25.25;51.76;101062.94;5073182;27;45355;-75
2022/10/22 07:45:08;;;;;;;;;1.00;1.00;;;;;25.27;50.95;101066.34;5074857;27;45607;-78
2022/10/22 07:47:34;;;;;;;;;1.00;1.00;;;;;25.28;51.45;101073.47;5072195;27;46352;-78
2022/10/22 07:50:00;;;;;;;;;0.00;0.00;;;;;25.27;51.79;101080.78;5060685;27;45461;-75
2022/10/22 07:52:25;;;;;;;;;9.67;8.00;;;;;25.21;48.54;101089.63;5066691;27;45544;-74
2022/10/22 07:54:51;;;;;;;;;9.33;7.00;;;;;24.90;47.35;101092.19;5065277;28;45478;-77
2022/10/22 07:57:16;;;;;;;;;5.00;5.00;;;;;24.50;47.04;101095.50;5061462;28;50613;-77
2022/10/22 07:59:41;;;;;;;;;5.00;5.00;;;;;24.13;47.45;101102.19;5065617;28;50364;-76
